Time;durP1;ratioP1;P1;durP2;ratioP2;P2;SDS_P1;SDS_P2;PMS_P1;PMS_P2;Temp;Humidity;BMP_temperature;BMP_pressure;BME280_temperature;BME280_humidity;BME280_pressure;Samples;Min_cycle;Max_cycle;Signal;HPM_P1;HPM_P2
2022/11/07 00:01:19;;;;;;;8.35;5.10;;;10.90;99.90;;;;;;5050113;28;20063;-86
2022/11/07 00:03:45;;;;;;;9.07;5.00;;;10.90;99.90;;;;;;5050366;28;20044;-87
2022/11/07 00:06:10;;;;;;;6.60;5.00;;;10.90;99.90;;;;;;5049989;28;20496;-86
2022/11/07 00:08:36;;;;;;;9.57;5.28;;;10.80;99.90;;;;;;5076855;28;20098;-87
2022/11/07 00:11:03;;;;;;;7.97;4.53;;;10.90;99.90;;;;;;5084682;28;20565;-87
2022/11/07 00:13:29;;;;;;;11.30;5.38;;;10.90;99.90;;;;;;5063773;28;20095;-87
2022/11/07 00:16:07;;;;;;;9.88;5.15;;;11.00;99.90;;;;;;5063107;28;20072;-87
2022/11/07 00:18:33;;;;;;;10.02;5.00;;;11.00;99.90;;;;;;5064546;28;20057;-87
2022/11/07 00:21:07;;;;;;;9.88;4.85;;;10.90;99.90;;;;;;5059678;28;20068;-87
2022/11/07 00:23:33;;;;;;;9.00;5.25;;;11.00;99.90;;;;;;5054791;28;20099;-87
2022/11/07 00:26:07;;;;;;;8.77;5.10;;;11.00;99.90;;;;;;5046229;28;20076;-87
2022/11/07 00:28:41;;;;;;;8.70;4.75;;;11.00;99.90;;;;;;5055194;28;20041;-87
2022/11/07 00:31:08;;;;;;;8.65;5.00;;;11.00;99.90;;;;;;5057977;28;20049;-87
2022/11/07 00:33:34;;;;;;;9.68;4.80;;;11.00;99.90;;;;;;5075798;28;20037;-86
2022/11/07 00:36:00;;;;;;;10.40;5.05;;;11.10;99.90;;;;;;5052116;28;20105;-86
2022/11/07 00:38:26;;;;;;;11.18;4.90;;;11.10;99.90;;;;;;5068390;28;20530;-86
2022/11/07 00:40:56;;;;;;;9.95;5.07;;;11.10;99.90;;;;;;5085795;28;20044;-87
2022/11/07 00:43:22;;;;;;;9.65;4.72;;;11.10;99.90;;;;;;5064604;28;20045;-86
2022/11/07 00:45:47;;;;;;;11.45;4.65;;;11.10;99.90;;;;;;5048160;28;20053;-86
2022/11/07 00:48:13;;;;;;;10.32;5.00;;;11.20;99.90;;;;;;5060875;28;20059;-87
2022/11/07 00:50:39;;;;;;;9.00;4.45;;;11.20;99.90;;;;;;5057440;28;20043;-87
2022/11/07 00:53:05;;;;;;;11.95;4.90;;;11.20;99.90;;;;;;5058796;28;20037;-87
2022/11/07 00:55:32;;;;;;;10.90;4.95;;;11.20;99.90;;;;;;5062787;28;20430;-86
2022/11/07 00:57:57;;;;;;;9.25;5.20;;;11.20;99.90;;;;;;5050729;28;20837;-87
2022/11/07 01:00:23;;;;;;;10.88;5.30;;;11.20;99.90;;;;;;5063616;28;20047;-86
2022/11/07 01:05:09;;;;;;;10.18;4.43;;;11.20;99.90;;;;;;5052764;28;20033;-86
2022/11/07 01:05:34;;;;;;;11.68;5.47;;;11.20;99.90;;;;;;5064476;28;20048;-86
2022/11/07 01:08:00;;;;;;;8.77;4.28;;;11.30;99.90;;;;;;5057435;28;20578;-86
2022/11/07 01:10:25;;;;;;;10.60;4.70;;;11.20;99.90;;;;;;5061604;28;20076;-87
2022/11/07 01:12:51;;;;;;;12.45;4.72;;;11.10;99.90;;;;;;5052791;28;20384;-86
2022/11/07 01:15:17;;;;;;;8.32;4.20;;;11.20;99.90;;;;;;5071757;28;20045;-87
2022/11/07 01:17:42;;;;;;;8.57;4.68;;;11.10;99.90;;;;;;5048857;28;20033;-87
2022/11/07 01:20:09;;;;;;;10.93;5.03;;;11.10;99.90;;;;;;5065436;28;20040;-86
2022/11/07 01:22:34;;;;;;;8.95;4.05;;;11.10;99.90;;;;;;5057403;28;20040;-86
2022/11/07 01:25:00;;;;;;;11.75;4.60;;;11.00;99.90;;;;;;5060142;28;20553;-86
2022/11/07 01:27:26;;;;;;;11.43;4.47;;;10.90;99.90;;;;;;5068821;28;20492;-86
2022/11/07 01:29:51;;;;;;;11.85;4.40;;;11.00;99.90;;;;;;5067781;28;20101;-89
2022/11/07 01:32:17;;;;;;;9.88;4.63;;;11.00;99.90;;;;;;5081585;28;20750;-87
2022/11/07 01:34:43;;;;;;;9.38;4.25;;;11.00;99.90;;;;;;5061655;28;20032;-86
2022/11/07 01:37:08;;;;;;;11.90;5.15;;;11.00;99.90;;;;;;5067644;28;20044;-86
2022/11/07 01:39:34;;;;;;;12.30;4.82;;;11.00;99.90;;;;;;5061608;28;20064;-86
2022/11/07 01:41:59;;;;;;;9.75;4.25;;;10.90;99.90;;;;;;5105555;27;20049;-87
2022/11/07 01:44:25;;;;;;;10.48;4.97;;;10.90;99.90;;;;;;5084701;28;20079;-86
2022/11/07 01:46:54;;;;;;;11.30;4.57;;;11.00;99.90;;;;;;5076426;28;20398;-86
2022/11/07 01:49:29;;;;;;;10.77;4.75;;;10.90;99.90;;;;;;5059733;28;20072;-86
2022/11/07 01:51:59;;;;;;;12.65;4.80;;;11.00;99.90;;;;;;5061716;28;20044;-86
2022/11/07 01:54:31;;;;;;;10.18;4.57;;;11.00;99.90;;;;;;5059521;28;20102;-87
2022/11/07 01:56:59;;;;;;;13.35;4.93;;;11.00;99.90;;;;;;5066202;28;20135;-87
2022/11/07 01:59:29;;;;;;;9.15;4.18;;;11.10;99.90;;;;;;5065784;28;20124;-86
2022/11/07 02:01:55;;;;;;;10.85;4.43;;;11.00;99.90;;;;;;5063856;28;21101;-86
2022/11/07 02:04:26;;;;;;;10.98;4.60;;;11.10;99.90;;;;;;5056397;28;20055;-86
2022/11/07 02:07:28;;;;;;;9.63;4.63;;;11.10;99.90;;;;;;5062046;28;20440;-86
2022/11/07 02:09:54;;;;;;;8.23;4.60;;;11.10;99.90;;;;;;5051482;28;20455;-86
2022/11/07 02:12:23;;;;;;;10.57;4.03;;;11.10;99.90;;;;;;5072190;28;20052;-86
2022/11/07 02:14:49;;;;;;;10.82;4.53;;;11.10;99.90;;;;;;5067830;28;20060;-86
2022/11/07 02:17:15;;;;;;;10.45;4.05;;;11.00;99.90;;;;;;5061489;28;20056;-86
2022/11/07 02:19:44;;;;;;;11.38;4.30;;;11.10;99.90;;;;;;5047348;28;20397;-86
2022/11/07 02:22:45;;;;;;;10.23;4.10;;;11.00;99.90;;;;;;5052934;28;20547;-86
2022/11/07 02:25:13;;;;;;;12.10;4.47;;;11.10;99.90;;;;;;5089555;28;20126;-87
2022/11/07 02:27:40;;;;;;;11.15;4.35;;;11.10;99.90;;;;;;5076630;28;20044;-87
2022/11/07 02:30:17;;;;;;;11.20;4.40;;;11.10;99.90;;;;;;5050551;28;20527;-86
2022/11/07 02:32:42;;;;;;;9.98;4.50;;;11.20;99.90;;;;;;5057175;28;20029;-86
2022/11/07 02:35:29;;;;;;;10.23;4.72;;;11.20;99.90;;;;;;5064780;28;20142;-86
2022/11/07 02:37:55;;;;;;;11.65;4.35;;;11.20;99.90;;;;;;5061383;28;20045;-86
2022/11/07 02:40:22;;;;;;;8.75;4.05;;;11.20;99.90;;;;;;5072372;28;20074;-86
2022/11/07 02:42:48;;;;;;;11.55;4.47;;;11.20;99.90;;;;;;5074094;28;20048;-86
2022/11/07 02:45:28;;;;;;;8.98;4.50;;;11.20;99.90;;;;;;5065046;28;20369;-86
2022/11/07 02:47:54;;;;;;;12.93;4.15;;;11.20;99.90;;;;;;5054088;28;20558;-86
2022/11/07 02:50:19;;;;;;;11.73;4.25;;;11.20;99.90;;;;;;5057640;28;20079;-86
2022/11/07 02:52:45;;;;;;;12.68;5.18;;;11.20;99.90;;;;;;5062131;28;20466;-87
2022/11/07 02:55:12;;;;;;;12.40;4.07;;;11.20;99.90;;;;;;5102407;27;20123;-86
2022/11/07 02:57:38;;;;;;;8.50;4.20;;;11.20;99.90;;;;;;5058894;28;20385;-86
2022/11/07 03:00:06;;;;;;;10.05;4.30;;;11.20;99.90;;;;;;5070553;28;20081;-86
2022/11/07 03:02:32;;;;;;;10.48;4.10;;;11.10;99.90;;;;;;5064947;28;20563;-86
2022/11/07 03:04:57;;;;;;;11.27;4.32;;;11.20;99.90;;;;;;5060213;28;20174;-86
2022/11/07 03:07:24;;;;;;;10.02;4.05;;;11.10;99.90;;;;;;5047638;28;20040;-86
2022/11/07 03:09:49;;;;;;;8.65;4.13;;;11.00;99.90;;;;;;5054014;28;20183;-86
2022/11/07 03:12:15;;;;;;;13.10;4.40;;;11.20;99.90;;;;;;5049853;28;20124;-86
2022/11/07 03:14:41;;;;;;;11.82;4.97;;;11.20;99.90;;;;;;5066465;28;20109;-86
2022/11/07 03:17:07;;;;;;;9.98;3.85;;;11.10;99.90;;;;;;5073414;28;20036;-87
2022/11/07 03:19:32;;;;;;;10.90;4.38;;;11.10;99.90;;;;;;5067689;28;20041;-86
2022/11/07 03:21:58;;;;;;;11.52;4.10;;;11.10;99.90;;;;;;5067626;28;20069;-86
2022/11/07 03:24:24;;;;;;;10.65;4.07;;;11.10;99.90;;;;;;5079467;28;20054;-86
2022/11/07 03:26:49;;;;;;;9.98;3.72;;;11.10;99.90;;;;;;5061843;28;20042;-86
2022/11/07 03:29:15;;;;;;;11.18;4.53;;;11.10;99.90;;;;;;5088461;27;20057;-86
2022/11/07 03:31:40;;;;;;;12.45;4.50;;;11.10;99.90;;;;;;5064227;28;20080;-86
2022/11/07 03:34:06;;;;;;;15.70;4.47;;;11.10;99.90;;;;;;5073349;28;20079;-86
2022/11/07 03:36:33;;;;;;;11.85;4.07;;;11.00;99.90;;;;;;5060468;28;20047;-87
2022/11/07 03:38:59;;;;;;;12.27;4.30;;;11.10;99.90;;;;;;5049911;28;20059;-86
2022/11/07 03:41:24;;;;;;;12.50;4.10;;;11.10;99.90;;;;;;5079467;28;20936;-87
2022/11/07 03:43:50;;;;;;;14.13;4.47;;;11.10;99.90;;;;;;5062345;28;20040;-86
2022/11/07 03:46:16;;;;;;;10.55;4.15;;;11.10;99.90;;;;;;5060429;28;20123;-87
2022/11/07 03:48:42;;;;;;;13.10;4.13;;;11.10;99.90;;;;;;5062331;28;20434;-86
2022/11/07 03:51:08;;;;;;;12.05;4.13;;;11.10;99.90;;;;;;5061729;28;20044;-86
2022/11/07 03:53:35;;;;;;;16.02;4.10;;;11.20;99.90;;;;;;5059480;28;20041;-86
2022/11/07 03:56:08;;;;;;;13.70;4.90;;;11.20;99.90;;;;;;5060619;28;20049;-86
2022/11/07 03:58:35;;;;;;;15.07;4.88;;;11.20;99.90;;;;;;5057932;28;20078;-87
2022/11/07 04:01:01;;;;;;;12.20;4.28;;;11.20;99.90;;;;;;5059651;28;20068;-86
2022/11/07 04:03:26;;;;;;;13.70;4.05;;;11.20;99.90;;;;;;5048414;28;20542;-86
2022/11/07 04:05:52;;;;;;;11.93;4.10;;;11.20;99.90;;;;;;5051532;28;20122;-86
2022/11/07 04:08:17;;;;;;;11.82;4.03;;;11.20;99.90;;;;;;5056619;28;20136;-86
2022/11/07 04:10:43;;;;;;;13.50;3.95;;;11.20;99.90;;;;;;5061809;28;20722;-86
2022/11/07 04:18:38;;;;;;;12.75;4.32;;;11.20;99.90;;;;;;5060858;28;20052;-86
2022/11/07 04:21:04;;;;;;;16.80;4.97;;;11.20;99.90;;;;;;5065403;28;20054;-87
2022/11/07 04:23:29;;;;;;;10.50;4.18;;;11.20;99.90;;;;;;5060082;28;20051;-86
2022/11/07 04:28:39;;;;;;;13.57;4.30;;;11.20;99.90;;;;;;5083902;28;20048;-86
2022/11/07 04:31:05;;;;;;;12.57;4.10;;;11.30;99.90;;;;;;5059422;28;20071;-86
2022/11/07 04:33:30;;;;;;;11.98;4.53;;;11.30;99.90;;;;;;5065438;28;20043;-85
2022/11/07 04:35:56;;;;;;;11.13;4.20;;;11.30;99.90;;;;;;5071815;28;20040;-86
2022/11/07 04:38:22;;;;;;;13.35;4.72;;;11.30;99.90;;;;;;5050085;28;20045;-86
2022/11/07 04:40:57;;;;;;;14.00;4.40;;;11.30;99.90;;;;;;5065992;28;20088;-86
2022/11/07 04:43:25;;;;;;;14.10;4.60;;;11.30;99.90;;;;;;5064916;28;20062;-86
2022/11/07 04:45:51;;;;;;;13.82;4.78;;;11.30;99.90;;;;;;5073326;28;20119;-87
2022/11/07 04:48:18;;;;;;;12.60;4.60;;;11.30;99.90;;;;;;5052966;28;20084;-86
2022/11/07 04:50:44;;;;;;;15.25;4.82;;;11.20;99.90;;;;;;5053573;28;20098;-86
2022/11/07 04:53:15;;;;;;;14.55;4.93;;;11.20;99.90;;;;;;5102680;27;20032;-86
2022/11/07 04:55:42;;;;;;;12.75;4.82;;;11.30;99.90;;;;;;5063530;28;20075;-86
2022/11/07 04:58:08;;;;;;;13.50;5.03;;;11.30;99.90;;;;;;5053132;28;20577;-86
2022/11/07 05:00:34;;;;;;;15.30;4.95;;;11.30;99.90;;;;;;5064989;28;20068;-86
2022/11/07 05:03:00;;;;;;;17.02;5.15;;;11.30;99.90;;;;;;5065981;28;20073;-86
2022/11/07 05:05:25;;;;;;;11.35;4.57;;;11.30;99.90;;;;;;5066933;28;20044;-86
2022/11/07 05:07:51;;;;;;;14.07;4.80;;;11.30;99.90;;;;;;5064959;28;20047;-86
2022/11/07 05:10:26;;;;;;;10.98;5.25;;;11.30;99.90;;;;;;5054263;28;20538;-86
2022/11/07 05:12:52;;;;;;;14.73;4.88;;;11.30;99.90;;;;;;5059956;28;20045;-86
2022/11/07 05:15:18;;;;;;;13.32;4.60;;;11.30;99.90;;;;;;5075793;28;20063;-86
2022/11/07 05:17:44;;;;;;;14.13;4.55;;;11.30;99.90;;;;;;5054977;28;20443;-86
2022/11/07 05:20:27;;;;;;;16.33;4.93;;;11.20;99.90;;;;;;5067155;28;20048;-86
2022/11/07 05:23:11;;;;;;;12.63;4.75;;;11.30;99.90;;;;;;5054607;28;20053;-83
2022/11/07 05:25:53;;;;;;;13.38;5.03;;;11.30;99.90;;;;;;5062247;28;20052;-86
2022/11/07 05:28:25;;;;;;;15.20;4.95;;;11.30;99.90;;;;;;5051556;28;20049;-86
2022/11/07 05:30:50;;;;;;;11.43;4.50;;;11.30;99.90;;;;;;5061903;28;20068;-86
2022/11/07 05:33:17;;;;;;;15.93;5.13;;;11.30;99.90;;;;;;5056550;28;20110;-86
2022/11/07 05:35:44;;;;;;;13.77;5.43;;;11.30;99.90;;;;;;5058865;28;20535;-86
2022/11/07 05:38:10;;;;;;;12.23;4.82;;;11.30;99.90;;;;;;5049048;28;20068;-86
2022/11/07 05:40:37;;;;;;;13.40;5.00;;;11.30;99.90;;;;;;5088224;27;20041;-86
2022/11/07 05:43:08;;;;;;;12.93;5.07;;;11.40;99.90;;;;;;5064855;28;20074;-86
2022/11/07 05:45:36;;;;;;;14.48;5.50;;;11.30;99.90;;;;;;5063701;28;20052;-86
2022/11/07 05:48:04;;;;;;;16.15;5.18;;;11.30;99.90;;;;;;5051941;28;20051;-85
2022/11/07 05:50:30;;;;;;;14.98;5.28;;;11.30;99.90;;;;;;5056177;28;20071;-86
2022/11/07 05:52:56;;;;;;;13.30;4.43;;;11.30;99.90;;;;;;5065983;28;20040;-85
2022/11/07 05:55:23;;;;;;;11.85;4.85;;;11.30;99.90;;;;;;5066702;28;20135;-85
2022/11/07 05:57:48;;;;;;;10.43;4.50;;;11.30;99.90;;;;;;5052526;28;20032;-86
2022/11/07 06:00:15;;;;;;;12.80;4.50;;;11.30;99.90;;;;;;5060315;28;20200;-85
2022/11/07 06:02:41;;;;;;;12.48;4.38;;;11.30;99.90;;;;;;5052815;28;20392;-87
2022/11/07 06:05:07;;;;;;;12.85;4.90;;;11.20;99.90;;;;;;5064676;28;20045;-86
2022/11/07 06:07:34;;;;;;;15.25;4.78;;;11.20;99.90;;;;;;5060390;28;20040;-86
2022/11/07 06:10:00;;;;;;;12.02;4.85;;;11.20;99.90;;;;;;5056888;28;20045;-86
2022/11/07 06:12:25;;;;;;;15.32;5.25;;;11.20;99.90;;;;;;5070558;28;20352;-86
2022/11/07 06:14:51;;;;;;;14.90;4.40;;;11.20;99.90;;;;;;5058447;28;20734;-86
2022/11/07 06:17:17;;;;;;;14.73;4.85;;;11.30;99.90;;;;;;5062848;28;20079;-86
2022/11/07 06:19:42;;;;;;;10.02;4.55;;;11.30;99.90;;;;;;5056541;28;20048;-86
2022/11/07 06:22:08;;;;;;;17.85;5.55;;;11.30;99.90;;;;;;5069261;28;20075;-86
2022/11/07 06:24:33;;;;;;;13.30;5.00;;;11.30;99.90;;;;;;5068302;28;20071;-86
2022/11/07 06:26:59;;;;;;;15.65;5.15;;;11.30;99.90;;;;;;5059511;28;20075;-86
2022/11/07 06:29:24;;;;;;;15.15;5.95;;;11.30;99.90;;;;;;5074315;28;20078;-86
2022/11/07 06:31:50;;;;;;;15.40;5.10;;;11.30;99.90;;;;;;5073011;28;20040;-86
2022/11/07 06:34:16;;;;;;;15.38;5.75;;;11.40;99.90;;;;;;5057770;28;20033;-86
2022/11/07 06:36:41;;;;;;;15.57;5.00;;;11.40;99.90;;;;;;5057791;28;20036;-86
2022/11/07 06:39:07;;;;;;;14.60;5.25;;;11.40;99.90;;;;;;5065319;28;20044;-83
2022/11/07 06:41:32;;;;;;;12.55;4.68;;;11.40;99.90;;;;;;5077098;28;20487;-81
2022/11/07 06:43:58;;;;;;;12.32;4.95;;;11.50;99.90;;;;;;5066140;28;20045;-85
2022/11/07 06:46:24;;;;;;;13.10;5.22;;;11.40;99.90;;;;;;5055158;28;21158;-84
2022/11/07 06:48:50;;;;;;;15.73;5.38;;;11.40;99.90;;;;;;5085428;27;20124;-84
2022/11/07 06:51:16;;;;;;;14.00;5.28;;;11.40;99.90;;;;;;5054514;28;20045;-83
2022/11/07 06:53:42;;;;;;;17.10;5.90;;;11.40;99.90;;;;;;5055497;28;20098;-84
2022/11/07 06:56:12;;;;;;;14.57;5.32;;;11.40;99.90;;;;;;5065683;28;20050;-84
2022/11/07 06:58:38;;;;;;;12.45;5.18;;;11.40;99.90;;;;;;5062808;28;20047;-83
2022/11/07 07:01:05;;;;;;;13.93;5.47;;;11.50;99.90;;;;;;5057790;28;20504;-85
2022/11/07 07:03:31;;;;;;;13.73;5.15;;;11.50;99.90;;;;;;5056478;28;20045;-84
2022/11/07 07:06:01;;;;;;;16.20;5.22;;;11.50;99.90;;;;;;5069283;28;20044;-85
2022/11/07 07:08:27;;;;;;;13.88;4.70;;;11.50;99.90;;;;;;5062548;28;20044;-85
2022/11/07 07:10:53;;;;;;;16.13;5.45;;;11.40;99.90;;;;;;5067679;28;20064;-85
2022/11/07 07:13:19;;;;;;;15.45;5.38;;;11.50;99.90;;;;;;5054601;28;20130;-85
2022/11/07 07:15:54;;;;;;;17.33;5.47;;;11.40;99.90;;;;;;5061764;28;20045;-85
2022/11/07 07:18:21;;;;;;;17.48;5.68;;;11.50;99.90;;;;;;5054242;28;20117;-85
2022/11/07 07:20:51;;;;;;;13.20;5.35;;;11.50;99.90;;;;;;5072512;28;20032;-85
2022/11/07 07:23:19;;;;;;;12.82;5.20;;;11.40;99.90;;;;;;5086788;27;20049;-85
2022/11/07 07:25:45;;;;;;;14.68;5.55;;;11.40;99.90;;;;;;5063910;28;20362;-85
2022/11/07 07:28:11;;;;;;;17.92;5.50;;;11.40;99.90;;;;;;5072763;28;20036;-85
2022/11/07 07:30:37;;;;;;;16.15;5.53;;;11.40;99.90;;;;;;5064908;28;20053;-85
2022/11/07 07:33:03;;;;;;;15.27;5.82;;;11.40;99.90;;;;;;5053740;28;20056;-85
2022/11/07 07:35:29;;;;;;;15.73;5.60;;;11.40;99.90;;;;;;5052473;28;20048;-86
2022/11/07 07:37:55;;;;;;;18.83;6.18;;;11.50;99.90;;;;;;5053796;28;20039;-85
2022/11/07 07:40:21;;;;;;;14.52;5.30;;;11.50;99.90;;;;;;5076795;28;20043;-85
2022/11/07 07:42:47;;;;;;;16.63;5.57;;;11.50;99.90;;;;;;5064023;28;20165;-85
2022/11/07 07:45:14;;;;;;;15.13;5.07;;;11.50;99.90;;;;;;5068477;28;20048;-85
2022/11/07 07:47:40;;;;;;;;;;;11.50;99.90;;;;;;5063388;28;20036;-85
2022/11/07 07:50:08;;;;;;;13.13;4.78;;;11.60;99.90;;;;;;5061003;28;20045;-85
2022/11/07 07:52:34;;;;;;;18.00;5.80;;;11.60;99.90;;;;;;5051468;28;20127;-85
2022/11/07 07:55:00;;;;;;;17.80;5.65;;;11.60;99.90;;;;;;5058982;28;20167;-85
2022/11/07 07:57:26;;;;;;;16.20;5.32;;;11.60;99.90;;;;;;5066634;28;20445;-85
2022/11/07 07:59:51;;;;;;;14.88;5.15;;;11.70;99.90;;;;;;5065730;28;20037;-85
2022/11/07 08:02:17;;;;;;;18.27;5.53;;;11.80;99.90;;;;;;5062836;28;20178;-86
2022/11/07 08:04:43;;;;;;;16.55;4.68;;;11.80;99.90;;;;;;5054058;28;20070;-85
2022/11/07 08:07:09;;;;;;;15.52;5.03;;;11.80;99.90;;;;;;5051923;28;21973;-85
2022/11/07 08:09:35;;;;;;;13.43;4.78;;;11.80;99.90;;;;;;5060516;28;20044;-85
2022/11/07 08:12:07;;;;;;;17.58;5.10;;;11.80;99.90;;;;;;5068585;28;20040;-85
2022/11/07 08:14:35;;;;;;;12.40;4.65;;;11.90;99.90;;;;;;5057805;28;20055;-80
2022/11/07 08:17:01;;;;;;;18.65;5.25;;;11.90;99.90;;;;;;5066038;28;20060;-83
2022/11/07 08:19:27;;;;;;;16.83;4.70;;;11.90;99.90;;;;;;5067467;28;20504;-86
2022/11/07 08:21:53;;;;;;;15.90;4.45;;;11.90;99.90;;;;;;5066097;28;20043;-83
2022/11/07 08:24:18;;;;;;;19.08;4.60;;;12.00;99.90;;;;;;5058922;28;20048;-89
2022/11/07 08:26:44;;;;;;;18.65;6.13;;;11.90;99.90;;;;;;5068915;28;20044;-81
2022/11/07 08:29:10;;;;;;;15.73;4.68;;;12.00;99.90;;;;;;5065611;28;20161;-90
2022/11/07 08:31:36;;;;;;;16.83;4.80;;;11.90;99.90;;;;;;5076687;28;20052;-79
2022/11/07 08:34:01;;;;;;;14.68;4.30;;;12.00;99.90;;;;;;5067130;28;20067;-86
2022/11/07 08:36:28;;;;;;;22.73;5.13;;;12.00;99.90;;;;;;5108490;27;20121;-79
2022/11/07 08:38:53;;;;;;;15.68;4.85;;;12.00;99.90;;;;;;5076526;28;20038;-84
2022/11/07 08:41:19;;;;;;;14.55;4.45;;;12.00;99.90;;;;;;5080928;28;20044;-81
2022/11/07 08:43:46;;;;;;;21.15;4.93;;;12.10;99.90;;;;;;5087839;28;20387;-82
2022/11/07 08:46:12;;;;;;;18.27;5.10;;;12.00;99.90;;;;;;5062237;28;20124;-82
2022/11/07 08:48:39;;;;;;;18.58;5.13;;;12.10;99.90;;;;;;5062698;28;20454;-80
2022/11/07 08:51:04;;;;;;;16.15;5.10;;;12.10;99.90;;;;;;5061577;28;20139;-81
2022/11/07 08:53:31;;;;;;;17.35;4.75;;;12.20;99.90;;;;;;5067767;28;20119;-82
2022/11/07 08:56:02;;;;;;;20.48;4.78;;;12.20;99.90;;;;;;5065590;28;20052;-82
2022/11/07 08:58:28;;;;;;;13.80;4.18;;;12.20;99.90;;;;;;5075238;28;20504;-83
2022/11/07 09:00:53;;;;;;;14.90;5.00;;;12.20;99.90;;;;;;5072281;28;20040;-83
2022/11/07 09:03:19;;;;;;;16.17;4.18;;;12.20;99.90;;;;;;5073054;28;20040;-83
2022/11/07 09:05:45;;;;;;;15.55;4.60;;;12.30;99.90;;;;;;5074620;28;20076;-77
2022/11/07 09:08:10;;;;;;;12.07;3.83;;;12.30;99.90;;;;;;5073634;28;20509;-82
2022/11/07 09:10:36;;;;;;;13.27;4.13;;;12.30;99.90;;;;;;5071101;28;20105;-90
2022/11/07 09:13:01;;;;;;;13.02;3.85;;;12.30;99.90;;;;;;5066208;28;21844;-89
2022/11/07 09:15:27;;;;;;;19.02;5.18;;;12.40;99.90;;;;;;5062428;28;20381;-89
2022/11/07 09:17:53;;;;;;;16.40;4.43;;;12.40;99.90;;;;;;5072808;28;20127;-89
2022/11/07 09:20:19;;;;;;;15.15;3.92;;;12.40;99.90;;;;;;5069586;28;20140;-88
2022/11/07 09:22:44;;;;;;;17.08;4.90;;;12.40;99.90;;;;;;5100954;28;20047;-85
2022/11/07 09:25:11;;;;;;;18.50;4.50;;;12.50;99.90;;;;;;5073767;28;20040;-78
2022/11/07 09:27:37;;;;;;;11.40;3.90;;;12.40;99.90;;;;;;5061697;28;20040;-79
2022/11/07 09:30:04;;;;;;;15.90;4.72;;;12.50;99.90;;;;;;5071997;28;20105;-81
2022/11/07 09:32:29;;;;;;;12.55;3.83;;;12.50;99.90;;;;;;5072072;28;20058;-89
2022/11/07 09:34:55;;;;;;;13.68;4.28;;;12.60;99.90;;;;;;5078277;28;20052;-84
2022/11/07 09:37:21;;;;;;;15.73;4.65;;;12.60;99.90;;;;;;5076001;28;20040;-82
2022/11/07 09:39:47;;;;;;;15.10;4.00;;;12.70;99.90;;;;;;5078494;28;20032;-90
2022/11/07 09:42:28;;;;;;;16.88;3.78;;;12.70;99.90;;;;;;5081373;28;20046;-92
2022/11/07 09:45:00;;;;;;;13.43;4.38;;;12.80;99.90;;;;;;5064714;28;20037;-82
2022/11/07 09:47:39;;;;;;;13.40;4.13;;;12.90;99.90;;;;;;5062462;28;20610;-83
2022/11/07 09:50:30;;;;;;;14.32;4.07;;;12.90;99.90;;;;;;5067789;28;20052;-86
2022/11/07 09:53:02;;;;;;;14.00;4.75;;;13.00;99.90;;;;;;5067950;28;20049;-81
2022/11/07 09:55:38;;;;;;;12.93;3.95;;;12.90;99.90;;;;;;5088878;28;20051;-85
2022/11/07 09:58:33;;;;;;;19.00;4.35;;;13.00;99.90;;;;;;5071155;28;20081;-85
2022/11/07 10:01:19;;;;;;;12.98;4.13;;;13.10;99.90;;;;;;5060418;28;20060;-87
2022/11/07 10:03:45;;;;;;;14.57;4.13;;;13.00;99.90;;;;;;5070644;28;20063;-90
2022/11/07 10:06:28;;;;;;;14.82;3.72;;;13.10;99.90;;;;;;5094471;28;20039;-92
2022/11/07 10:09:15;;;;;;;14.43;4.18;;;13.10;99.90;;;;;;5090340;28;20086;-90
2022/11/07 10:12:16;;;;;;;11.27;4.22;;;13.10;99.90;;;;;;5093116;28;20043;-89
2022/11/07 10:15:00;;;;;;;16.60;4.43;;;13.10;99.90;;;;;;5084528;28;20044;-87
2022/11/07 10:17:48;;;;;;;15.55;3.90;;;13.00;99.90;;;;;;5094914;28;20393;-88
2022/11/07 10:20:37;;;;;;;14.63;3.58;;;13.10;99.90;;;;;;5051899;28;20552;-84
2022/11/07 10:23:27;;;;;;;17.45;4.03;;;13.10;99.90;;;;;;5078032;28;20180;-85
2022/11/07 10:26:03;;;;;;;13.60;3.97;;;13.10;99.90;;;;;;5070602;28;20047;-82
2022/11/07 10:28:29;;;;;;;15.63;4.50;;;13.20;99.90;;;;;;5083422;28;20095;-81
2022/11/07 10:31:00;;;;;;;13.40;3.70;;;13.20;99.90;;;;;;5068786;28;20104;-82
2022/11/07 10:33:48;;;;;;;12.05;3.40;;;13.30;99.90;;;;;;5085242;28;20316;-82
2022/11/07 10:36:22;;;;;;;14.95;3.95;;;13.30;99.90;;;;;;5077464;28;20167;-81
2022/11/07 10:38:47;;;;;;;12.57;3.97;;;13.30;99.90;;;;;;5079509;28;20178;-83
2022/11/07 10:41:18;;;;;;;10.88;3.40;;;13.30;99.90;;;;;;5058796;28;20527;-92
2022/11/07 10:43:48;;;;;;;12.05;3.40;;;13.40;99.90;;;;;;5059752;28;20047;-90
2022/11/07 10:46:39;;;;;;;14.07;3.67;;;13.40;99.90;;;;;;5064456;28;20048;-86
2022/11/07 10:49:30;;;;;;;11.93;3.67;;;13.50;99.90;;;;;;5076950;28;20408;-84
2022/11/07 10:52:08;;;;;;;15.00;3.75;;;13.50;99.90;;;;;;5078290;28;20038;-81
2022/11/07 10:54:34;;;;;;;13.50;3.75;;;13.50;99.90;;;;;;5072704;28;20044;-80
2022/11/07 10:57:10;;;;;;;10.52;3.92;;;13.60;99.90;;;;;;5083408;28;20052;-80
2022/11/07 10:59:43;;;;;;;11.52;3.60;;;13.60;99.90;;;;;;5088488;28;20110;-79
2022/11/07 11:02:29;;;;;;;13.50;3.72;;;13.60;99.90;;;;;;5088999;28;20483;-80
2022/11/07 11:05:01;;;;;;;12.02;3.75;;;13.70;99.90;;;;;;5078868;28;20127;-79
2022/11/07 11:07:39;;;;;;;13.98;4.13;;;13.70;99.90;;;;;;5075381;28;20036;-80
2022/11/07 11:10:26;;;;;;;14.25;3.78;;;13.80;99.90;;;;;;5086655;28;20500;-79
2022/11/07 11:12:51;;;;;;;;;;;13.80;99.90;;;;;;5084473;28;20032;-80
2022/11/07 11:15:23;;;;;;;16.27;3.92;;;13.80;99.90;;;;;;5083876;28;20377;-80
2022/11/07 11:18:12;;;;;;;13.70;4.10;;;13.90;99.90;;;;;;5086610;28;20132;-80
2022/11/07 11:21:01;;;;;;;12.15;3.88;;;13.90;99.90;;;;;;5087896;28;20082;-80
2022/11/07 11:23:30;;;;;;;11.80;4.15;;;13.90;99.90;;;;;;5081165;28;20139;-80
2022/11/07 11:26:01;;;;;;;15.63;4.05;;;13.90;99.90;;;;;;5082923;28;20054;-80
2022/11/07 11:28:37;;;;;;;14.52;4.10;;;13.90;99.90;;;;;;5066876;28;20040;-80
2022/11/07 11:31:12;;;;;;;13.90;3.80;;;13.90;99.90;;;;;;5083147;28;20048;-80
2022/11/07 11:33:46;;;;;;;14.43;3.72;;;13.90;99.90;;;;;;5072489;28;20044;-79
2022/11/07 11:36:20;;;;;;;12.45;3.80;;;13.90;99.90;;;;;;5072906;28;20040;-88
2022/11/07 11:38:54;;;;;;;12.65;3.90;;;13.80;99.90;;;;;;5064069;28;20115;-83
2022/11/07 11:41:50;;;;;;;12.90;4.45;;;13.90;99.90;;;;;;5071966;28;20141;-87
2022/11/07 11:44:37;;;;;;;13.63;4.00;;;13.90;99.90;;;;;;5064507;28;20124;-90
2022/11/07 11:47:24;;;;;;;10.57;3.78;;;13.90;99.90;;;;;;5058346;28;20056;-93
2022/11/07 11:49:55;;;;;;;11.95;3.60;;;13.90;99.90;;;;;;5071337;28;20480;-88
2022/11/07 11:52:22;;;;;;;12.23;4.18;;;13.90;99.90;;;;;;5072630;28;20028;-82
2022/11/07 11:54:54;;;;;;;11.50;3.55;;;13.90;99.90;;;;;;5091319;27;20064;-82
2022/11/07 11:57:39;;;;;;;13.30;4.07;;;13.80;99.90;;;;;;5066187;28;20560;-78
2022/11/07 12:00:13;;;;;;;16.23;3.95;;;13.90;99.90;;;;;;5062202;28;20052;-90
2022/11/07 12:02:53;;;;;;;11.20;4.22;;;13.90;99.90;;;;;;5069462;28;20040;-88
2022/11/07 12:05:24;;;;;;;13.60;4.05;;;13.90;99.90;;;;;;5072152;28;20051;-86
2022/11/07 12:08:10;;;;;;;11.07;3.67;;;14.00;99.90;;;;;;5070572;28;20051;-88
2022/11/07 12:11:09;;;;;;;15.55;4.43;;;14.00;99.90;;;;;;5046035;28;20068;-88
2022/11/07 12:14:06;;;;;;;15.82;4.80;;;14.00;99.90;;;;;;5060890;28;20520;-87
2022/11/07 12:17:28;;;;;;;12.40;3.75;;;14.00;99.90;;;;;;5107372;27;20048;-87
2022/11/07 12:20:10;;;;;;;13.35;3.95;;;14.00;99.90;;;;;;5020423;28;20568;-88
2022/11/07 12:22:43;;;;;;;14.77;4.22;;;14.00;99.90;;;;;;5034461;28;20044;-88
2022/11/07 12:25:27;;;;;;;11.82;3.97;;;14.00;99.90;;;;;;5040641;28;20167;-88
2022/11/07 12:27:59;;;;;;;12.40;4.22;;;14.00;99.90;;;;;;5054968;28;20067;-92
2022/11/07 12:30:34;;;;;;;12.23;4.10;;;14.00;99.90;;;;;;5067076;28;20155;-94
2022/11/07 12:33:02;;;;;;;12.38;4.07;;;14.10;99.90;;;;;;5076574;28;20127;-90
2022/11/07 12:35:47;;;;;;;17.67;4.45;;;14.10;99.90;;;;;;5066374;28;20666;-95
2022/11/07 12:38:34;;;;;;;11.68;4.20;;;14.10;99.90;;;;;;5070238;28;20055;-92
2022/11/07 12:41:09;;;;;;;14.77;4.35;;;14.10;99.90;;;;;;5072773;28;20040;-89
2022/11/07 12:43:57;;;;;;;13.27;4.30;;;14.20;99.90;;;;;;5059437;28;20060;-87
2022/11/07 12:46:45;;;;;;;10.50;3.95;;;14.20;99.90;;;;;;5066169;28;21725;-83
2022/11/07 12:49:48;;;;;;;12.93;5.43;;;14.30;99.90;;;;;;5048048;28;20079;-83
2022/11/07 12:52:29;;;;;;;13.82;3.75;;;14.30;99.90;;;;;;5063922;28;20063;-83
2022/11/07 12:55:25;;;;;;;12.27;4.03;;;14.40;99.90;;;;;;5062600;28;20044;-84
2022/11/07 12:57:53;;;;;;;13.88;4.75;;;14.40;99.90;;;;;;5064667;28;20049;-82
2022/11/07 13:00:24;;;;;;;13.70;4.45;;;14.50;99.90;;;;;;5067705;28;20048;-84
2022/11/07 13:03:20;;;;;;;12.23;4.65;;;14.50;99.90;;;;;;5062521;28;20040;-84